sensor_id;sensor_type;location;lat;lon;timestamp;temperature;humidity
37340;DHT22;23223;51.006;7.610;2024-03-02T00:02:02;7.70;99.90
37340;DHT22;23223;51.006;7.610;2024-03-02T00:04:27;7.80;99.90
37340;DHT22;23223;51.006;7.610;2024-03-02T00:06:53;7.70;99.90
37340;DHT22;23223;51.006;7.610;2024-03-02T00:09:20;7.70;99.90
37340;DHT22;23223;51.006;7.610;2024-03-02T00:11:45;7.70;99.90
37340;DHT22;23223;51.006;7.610;2024-03-02T00:14:11;7.80;99.90
37340;DHT22;23223;51.006;7.610;2024-03-02T00:16:37;7.70;99.90
37340;DHT22;23223;51.006;7.610;2024-03-02T00:19:03;7.50;99.90
37340;DHT22;23223;51.006;7.610;2024-03-02T00:21:32;7.60;99.90
37340;DHT22;23223;51.006;7.610;2024-03-02T00:23:58;7.30;99.90
37340;DHT22;23223;51.006;7.610;2024-03-02T00:26:25;7.00;99.90
37340;DHT22;23223;51.006;7.610;2024-03-02T00:28:54;7.00;99.90
37340;DHT22;23223;51.006;7.610;2024-03-02T00:31:22;6.70;99.90
37340;DHT22;23223;51.006;7.610;2024-03-02T00:33:48;6.50;99.90
37340;DHT22;23223;51.006;7.610;2024-03-02T00:36:16;6.80;99.90
37340;DHT22;23223;51.006;7.610;2024-03-02T00:38:49;6.90;99.90
37340;DHT22;23223;51.006;7.610;2024-03-02T00:41:32;7.00;99.90
37340;DHT22;23223;51.006;7.610;2024-03-02T00:44:05;6.90;99.90
37340;DHT22;23223;51.006;7.610;2024-03-02T00:46:41;7.20;99.90
37340;DHT22;23223;51.006;7.610;2024-03-02T00:49:22;7.50;99.90
37340;DHT22;23223;51.006;7.610;2024-03-02T00:51:50;7.60;99.90
37340;DHT22;23223;51.006;7.610;2024-03-02T00:54:25;7.80;99.90
37340;DHT22;23223;51.006;7.610;2024-03-02T00:56:52;7.90;99.90
37340;DHT22;23223;51.006;7.610;2024-03-02T00:59:18;8.00;99.90
37340;DHT22;23223;51.006;7.610;2024-03-02T01:01:43;8.10;99.90
37340;DHT22;23223;51.006;7.610;2024-03-02T01:04:09;8.10;99.90
37340;DHT22;23223;51.006;7.610;2024-03-02T01:06:35;8.20;99.90
37340;DHT22;23223;51.006;7.610;2024-03-02T01:09:01;8.10;99.90
37340;DHT22;23223;51.006;7.610;2024-03-02T01:11:28;8.20;99.90
37340;DHT22;23223;51.006;7.610;2024-03-02T01:13:53;8.20;99.90
37340;DHT22;23223;51.006;7.610;2024-03-02T01:16:19;8.30;99.90
37340;DHT22;23223;51.006;7.610;2024-03-02T01:18:44;8.30;99.90
37340;DHT22;23223;51.006;7.610;2024-03-02T01:21:10;8.30;99.90
37340;DHT22;23223;51.006;7.610;2024-03-02T01:23:36;8.30;99.90
37340;DHT22;23223;51.006;7.610;2024-03-02T01:26:01;8.20;99.90
37340;DHT22;23223;51.006;7.610;2024-03-02T01:28:27;8.20;99.90
37340;DHT22;23223;51.006;7.610;2024-03-02T01:30:53;8.20;99.90
37340;DHT22;23223;51.006;7.610;2024-03-02T01:33:19;8.10;99.90
37340;DHT22;23223;51.006;7.610;2024-03-02T01:35:45;8.10;99.90
37340;DHT22;23223;51.006;7.610;2024-03-02T01:38:10;8.20;99.90
37340;DHT22;23223;51.006;7.610;2024-03-02T01:40:37;8.20;99.90
37340;DHT22;23223;51.006;7.610;2024-03-02T01:43:06;8.10;99.90
37340;DHT22;23223;51.006;7.610;2024-03-02T01:45:33;8.10;99.90
37340;DHT22;23223;51.006;7.610;2024-03-02T01:47:59;8.00;99.90
37340;DHT22;23223;51.006;7.610;2024-03-02T01:50:43;8.00;99.90
37340;DHT22;23223;51.006;7.610;2024-03-02T01:53:08;8.00;99.90
37340;DHT22;23223;51.006;7.610;2024-03-02T01:55:35;8.00;99.90
37340;DHT22;23223;51.006;7.610;2024-03-02T01:58:00;7.90;99.90
37340;DHT22;23223;51.006;7.610;2024-03-02T02:00:26;7.90;99.90
37340;DHT22;23223;51.006;7.610;2024-03-02T02:02:52;7.80;99.90
37340;DHT22;23223;51.006;7.610;2024-03-02T02:05:18;7.70;99.90
37340;DHT22;23223;51.006;7.610;2024-03-02T02:07:44;7.70;99.90
37340;DHT22;23223;51.006;7.610;2024-03-02T02:10:12;7.80;99.90
37340;DHT22;23223;51.006;7.610;2024-03-02T02:12:38;7.90;99.90
37340;DHT22;23223;51.006;7.610;2024-03-02T02:15:25;8.00;99.90
37340;DHT22;23223;51.006;7.610;2024-03-02T02:17:51;8.10;99.90
37340;DHT22;23223;51.006;7.610;2024-03-02T02:20:16;8.10;99.90
37340;DHT22;23223;51.006;7.610;2024-03-02T02:22:56;8.10;99.90
37340;DHT22;23223;51.006;7.610;2024-03-02T02:25:22;8.10;99.90
37340;DHT22;23223;51.006;7.610;2024-03-02T02:27:47;8.10;99.90
37340;DHT22;23223;51.006;7.610;2024-03-02T02:30:13;8.20;99.90
37340;DHT22;23223;51.006;7.610;2024-03-02T02:32:38;8.30;99.90
37340;DHT22;23223;51.006;7.610;2024-03-02T02:35:04;8.20;99.90
37340;DHT22;23223;51.006;7.610;2024-03-02T02:37:30;8.20;99.90
37340;DHT22;23223;51.006;7.610;2024-03-02T02:39:56;8.00;99.90
37340;DHT22;23223;51.006;7.610;2024-03-02T02:42:22;8.00;99.90
37340;DHT22;23223;51.006;7.610;2024-03-02T02:44:47;7.80;99.90
37340;DHT22;23223;51.006;7.610;2024-03-02T02:47:13;7.50;99.90
37340;DHT22;23223;51.006;7.610;2024-03-02T02:49:38;7.60;99.90
37340;DHT22;23223;51.006;7.610;2024-03-02T02:52:04;7.40;99.90
37340;DHT22;23223;51.006;7.610;2024-03-02T02:54:29;7.20;99.90
37340;DHT22;23223;51.006;7.610;2024-03-02T02:56:55;7.40;99.90
37340;DHT22;23223;51.006;7.610;2024-03-02T02:59:20;7.50;99.90
37340;DHT22;23223;51.006;7.610;2024-03-02T03:01:46;7.30;99.90
37340;DHT22;23223;51.006;7.610;2024-03-02T03:04:11;7.20;99.90
37340;DHT22;23223;51.006;7.610;2024-03-02T03:06:37;7.30;99.90
37340;DHT22;23223;51.006;7.610;2024-03-02T03:09:03;7.20;99.90
37340;DHT22;23223;51.006;7.610;2024-03-02T03:11:29;7.30;99.90
37340;DHT22;23223;51.006;7.610;2024-03-02T03:13:54;7.50;99.90
37340;DHT22;23223;51.006;7.610;2024-03-02T03:16:20;7.50;99.90
37340;DHT22;23223;51.006;7.610;2024-03-02T03:18:45;7.60;99.90
37340;DHT22;23223;51.006;7.610;2024-03-02T03:21:11;7.30;99.90
37340;DHT22;23223;51.006;7.610;2024-03-02T03:23:36;7.10;99.90
37340;DHT22;23223;51.006;7.610;2024-03-02T03:26:02;6.90;99.90
37340;DHT22;23223;51.006;7.610;2024-03-02T03:28:28;6.90;99.90
37340;DHT22;23223;51.006;7.610;2024-03-02T03:30:54;6.90;99.90
37340;DHT22;23223;51.006;7.610;2024-03-02T03:33:19;6.90;99.90
37340;DHT22;23223;51.006;7.610;2024-03-02T03:35:45;6.90;99.90
37340;DHT22;23223;51.006;7.610;2024-03-02T03:38:10;6.90;99.90
37340;DHT22;23223;51.006;7.610;2024-03-02T03:40:36;7.10;99.90
37340;DHT22;23223;51.006;7.610;2024-03-02T03:43:02;7.30;99.90
37340;DHT22;23223;51.006;7.610;2024-03-02T03:45:28;7.30;99.90
37340;DHT22;23223;51.006;7.610;2024-03-02T03:47:54;7.20;99.90
37340;DHT22;23223;51.006;7.610;2024-03-02T03:50:20;7.30;99.90
37340;DHT22;23223;51.006;7.610;2024-03-02T03:52:45;7.40;99.90
37340;DHT22;23223;51.006;7.610;2024-03-02T03:55:11;7.40;99.90
37340;DHT22;23223;51.006;7.610;2024-03-02T03:57:36;7.40;99.90
37340;DHT22;23223;51.006;7.610;2024-03-02T04:00:03;7.30;99.90
37340;DHT22;23223;51.006;7.610;2024-03-02T04:02:28;7.30;99.90
37340;DHT22;23223;51.006;7.610;2024-03-02T04:04:54;7.30;99.90
37340;DHT22;23223;51.006;7.610;2024-03-02T04:07:19;7.40;99.90
37340;DHT22;23223;51.006;7.610;2024-03-02T04:09:45;7.50;99.90
37340;DHT22;23223;51.006;7.610;2024-03-02T04:12:11;7.60;99.90
37340;DHT22;23223;51.006;7.610;2024-03-02T04:14:38;7.80;99.90
37340;DHT22;23223;51.006;7.610;2024-03-02T04:17:04;8.00;99.90
37340;DHT22;23223;51.006;7.610;2024-03-02T04:19:29;8.10;99.90
37340;DHT22;23223;51.006;7.610;2024-03-02T04:21:55;8.00;99.90
37340;DHT22;23223;51.006;7.610;2024-03-02T04:24:20;8.00;99.90
37340;DHT22;23223;51.006;7.610;2024-03-02T04:26:46;7.90;99.90
37340;DHT22;23223;51.006;7.610;2024-03-02T04:29:12;7.90;99.90
37340;DHT22;23223;51.006;7.610;2024-03-02T04:31:37;7.90;99.90
37340;DHT22;23223;51.006;7.610;2024-03-02T04:34:03;8.00;99.90
37340;DHT22;23223;51.006;7.610;2024-03-02T04:36:28;8.00;99.90
37340;DHT22;23223;51.006;7.610;2024-03-02T04:38:54;8.00;99.90
37340;DHT22;23223;51.006;7.610;2024-03-02T04:41:20;8.00;99.90
37340;DHT22;23223;51.006;7.610;2024-03-02T04:43:45;8.10;99.90
37340;DHT22;23223;51.006;7.610;2024-03-02T04:46:11;8.10;99.90
37340;DHT22;23223;51.006;7.610;2024-03-02T04:48:36;8.20;99.90
37340;DHT22;23223;51.006;7.610;2024-03-02T04:51:02;8.10;99.90
37340;DHT22;23223;51.006;7.610;2024-03-02T04:53:28;8.00;99.90
37340;DHT22;23223;51.006;7.610;2024-03-02T04:55:53;7.90;99.90
37340;DHT22;23223;51.006;7.610;2024-03-02T04:58:39;7.70;99.90
37340;DHT22;23223;51.006;7.610;2024-03-02T05:01:05;7.80;99.90
37340;DHT22;23223;51.006;7.610;2024-03-02T05:03:30;7.80;99.90
37340;DHT22;23223;51.006;7.610;2024-03-02T05:05:56;7.80;99.90
37340;DHT22;23223;51.006;7.610;2024-03-02T05:08:21;7.80;99.90
37340;DHT22;23223;51.006;7.610;2024-03-02T05:10:48;7.80;99.90
37340;DHT22;23223;51.006;7.610;2024-03-02T05:13:13;7.80;99.90
37340;DHT22;23223;51.006;7.610;2024-03-02T05:15:39;8.00;99.90
37340;DHT22;23223;51.006;7.610;2024-03-02T05:18:05;8.10;99.90
37340;DHT22;23223;51.006;7.610;2024-03-02T05:20:32;8.10;99.90
37340;DHT22;23223;51.006;7.610;2024-03-02T05:22:57;7.90;99.90
37340;DHT22;23223;51.006;7.610;2024-03-02T05:25:23;7.80;99.90
37340;DHT22;23223;51.006;7.610;2024-03-02T05:27:48;7.70;99.90
37340;DHT22;23223;51.006;7.610;2024-03-02T05:30:14;7.70;99.90
37340;DHT22;23223;51.006;7.610;2024-03-02T05:32:40;7.80;99.90
37340;DHT22;23223;51.006;7.610;2024-03-02T05:35:06;7.90;99.90
37340;DHT22;23223;51.006;7.610;2024-03-02T05:37:31;8.00;99.90
37340;DHT22;23223;51.006;7.610;2024-03-02T05:39:57;8.00;99.90
37340;DHT22;23223;51.006;7.610;2024-03-02T05:42:24;8.00;99.90
37340;DHT22;23223;51.006;7.610;2024-03-02T05:44:50;8.00;99.90
37340;DHT22;23223;51.006;7.610;2024-03-02T05:47:15;8.00;99.90
37340;DHT22;23223;51.006;7.610;2024-03-02T05:49:41;8.00;99.90
37340;DHT22;23223;51.006;7.610;2024-03-02T05:52:06;7.90;99.90
37340;DHT22;23223;51.006;7.610;2024-03-02T05:54:32;8.00;99.90
37340;DHT22;23223;51.006;7.610;2024-03-02T05:56:58;8.00;99.90
37340;DHT22;23223;51.006;7.610;2024-03-02T05:59:41;8.30;99.90
37340;DHT22;23223;51.006;7.610;2024-03-02T06:02:07;8.40;99.90
37340;DHT22;23223;51.006;7.610;2024-03-02T06:04:33;8.30;99.90
37340;DHT22;23223;51.006;7.610;2024-03-02T06:06:58;8.30;99.90
37340;DHT22;23223;51.006;7.610;2024-03-02T06:09:24;8.40;99.90
37340;DHT22;23223;51.006;7.610;2024-03-02T06:11:50;8.30;99.90
37340;DHT22;23223;51.006;7.610;2024-03-02T06:14:15;8.20;99.90
37340;DHT22;23223;51.006;7.610;2024-03-02T06:16:41;8.10;99.90
37340;DHT22;23223;51.006;7.610;2024-03-02T06:19:06;8.00;99.90
37340;DHT22;23223;51.006;7.610;2024-03-02T06:21:32;8.00;99.90
37340;DHT22;23223;51.006;7.610;2024-03-02T06:23:59;8.20;99.90
37340;DHT22;23223;51.006;7.610;2024-03-02T06:26:24;8.10;99.90
37340;DHT22;23223;51.006;7.610;2024-03-02T06:28:50;8.10;99.90
37340;DHT22;23223;51.006;7.610;2024-03-02T06:31:16;8.10;99.90
37340;DHT22;23223;51.006;7.610;2024-03-02T06:33:41;8.10;99.90
37340;DHT22;23223;51.006;7.610;2024-03-02T06:36:07;8.00;99.90
37340;DHT22;23223;51.006;7.610;2024-03-02T06:38:35;7.90;99.90
37340;DHT22;23223;51.006;7.610;2024-03-02T06:41:00;7.90;99.90
37340;DHT22;23223;51.006;7.610;2024-03-02T06:43:26;8.00;99.90
37340;DHT22;23223;51.006;7.610;2024-03-02T06:45:51;8.00;99.90
37340;DHT22;23223;51.006;7.610;2024-03-02T06:48:17;8.00;99.90
37340;DHT22;23223;51.006;7.610;2024-03-02T06:50:48;8.10;99.90
37340;DHT22;23223;51.006;7.610;2024-03-02T06:53:14;8.20;99.90
37340;DHT22;23223;51.006;7.610;2024-03-02T06:55:46;8.30;99.90
37340;DHT22;23223;51.006;7.610;2024-03-02T06:58:12;8.50;99.90
37340;DHT22;23223;51.006;7.610;2024-03-02T07:00:38;8.90;99.90
37340;DHT22;23223;51.006;7.610;2024-03-02T07:03:04;9.40;99.90
37340;DHT22;23223;51.006;7.610;2024-03-02T07:05:30;10.00;99.90
37340;DHT22;23223;51.006;7.610;2024-03-02T07:07:56;10.30;99.90
37340;DHT22;23223;51.006;7.610;2024-03-02T07:10:21;10.70;99.90
37340;DHT22;23223;51.006;7.610;2024-03-02T07:12:47;11.00;98.50
37340;DHT22;23223;51.006;7.610;2024-03-02T07:15:13;11.40;94.30
37340;DHT22;23223;51.006;7.610;2024-03-02T07:17:59;11.90;92.20
37340;DHT22;23223;51.006;7.610;2024-03-02T07:20:24;12.50;95.50
37340;DHT22;23223;51.006;7.610;2024-03-02T07:22:50;13.10;78.20
37340;DHT22;23223;51.006;7.610;2024-03-02T07:25:16;13.50;85.00
37340;DHT22;23223;51.006;7.610;2024-03-02T07:27:41;13.90;64.70
37340;DHT22;23223;51.006;7.610;2024-03-02T07:30:08;13.60;78.60
37340;DHT22;23223;51.006;7.610;2024-03-02T07:32:34;12.80;63.40
37340;DHT22;23223;51.006;7.610;2024-03-02T07:35:00;12.20;86.30
37340;DHT22;23223;51.006;7.610;2024-03-02T07:37:26;12.00;99.90
37340;DHT22;23223;51.006;7.610;2024-03-02T07:39:52;11.80;96.30
37340;DHT22;23223;51.006;7.610;2024-03-02T07:42:18;11.60;96.50
37340;DHT22;23223;51.006;7.610;2024-03-02T07:44:44;11.50;83.00
37340;DHT22;23223;51.006;7.610;2024-03-02T07:47:11;11.50;99.90
37340;DHT22;23223;51.006;7.610;2024-03-02T07:49:36;11.70;90.40
37340;DHT22;23223;51.006;7.610;2024-03-02T07:52:02;11.80;53.60
37340;DHT22;23223;51.006;7.610;2024-03-02T07:54:28;12.30;87.20
37340;DHT22;23223;51.006;7.610;2024-03-02T07:56:53;12.90;88.80
37340;DHT22;23223;51.006;7.610;2024-03-02T07:59:19;13.70;58.20
37340;DHT22;23223;51.006;7.610;2024-03-02T08:01:46;14.20;22.20
37340;DHT22;23223;51.006;7.610;2024-03-02T08:04:12;14.50;14.40
37340;DHT22;23223;51.006;7.610;2024-03-02T08:06:37;14.60;7.30
37340;DHT22;23223;51.006;7.610;2024-03-02T08:09:03;14.70;13.90
37340;DHT22;23223;51.006;7.610;2024-03-02T08:11:34;15.00;13.30
37340;DHT22;23223;51.006;7.610;2024-03-02T08:14:00;15.20;16.30
37340;DHT22;23223;51.006;7.610;2024-03-02T08:16:26;14.80;3.00
37340;DHT22;23223;51.006;7.610;2024-03-02T08:18:52;14.50;1.00
37340;DHT22;23223;51.006;7.610;2024-03-02T08:21:18;14.60;15.30
37340;DHT22;23223;51.006;7.610;2024-03-02T08:23:44;15.10;3.10
37340;DHT22;23223;51.006;7.610;2024-03-02T08:26:10;15.30;1.00
37340;DHT22;23223;51.006;7.610;2024-03-02T08:28:35;15.60;8.30
37340;DHT22;23223;51.006;7.610;2024-03-02T08:31:06;15.60;3.70
37340;DHT22;23223;51.006;7.610;2024-03-02T08:33:32;16.20;1.00
37340;DHT22;23223;51.006;7.610;2024-03-02T08:35:57;16.50;1.00
37340;DHT22;23223;51.006;7.610;2024-03-02T08:38:23;16.70;1.00
37340;DHT22;23223;51.006;7.610;2024-03-02T08:40:49;17.10;1.00
37340;DHT22;23223;51.006;7.610;2024-03-02T08:43:15;17.20;1.00
37340;DHT22;23223;51.006;7.610;2024-03-02T08:45:41;17.10;1.00
37340;DHT22;23223;51.006;7.610;2024-03-02T08:48:10;17.40;1.00
37340;DHT22;23223;51.006;7.610;2024-03-02T08:50:36;18.00;1.00
37340;DHT22;23223;51.006;7.610;2024-03-02T08:53:05;18.40;1.00
37340;DHT22;23223;51.006;7.610;2024-03-02T08:55:30;18.30;1.00
37340;DHT22;23223;51.006;7.610;2024-03-02T08:57:57;17.70;1.00
37340;DHT22;23223;51.006;7.610;2024-03-02T09:00:23;18.00;1.00
37340;DHT22;23223;51.006;7.610;2024-03-02T09:02:49;18.00;1.00
37340;DHT22;23223;51.006;7.610;2024-03-02T09:05:14;18.00;1.00
37340;DHT22;23223;51.006;7.610;2024-03-02T09:07:40;18.30;1.00
37340;DHT22;23223;51.006;7.610;2024-03-02T09:10:07;18.20;1.00
37340;DHT22;23223;51.006;7.610;2024-03-02T09:12:32;18.30;1.00
37340;DHT22;23223;51.006;7.610;2024-03-02T09:14:59;18.10;1.00
37340;DHT22;23223;51.006;7.610;2024-03-02T09:17:25;18.10;1.00
37340;DHT22;23223;51.006;7.610;2024-03-02T09:19:51;18.20;1.00
37340;DHT22;23223;51.006;7.610;2024-03-02T09:22:19;18.10;1.00
37340;DHT22;23223;51.006;7.610;2024-03-02T09:24:45;18.20;1.00
37340;DHT22;23223;51.006;7.610;2024-03-02T09:27:11;17.00;1.00
37340;DHT22;23223;51.006;7.610;2024-03-02T09:29:37;15.60;1.00
37340;DHT22;23223;51.006;7.610;2024-03-02T09:32:02;14.60;1.00
37340;DHT22;23223;51.006;7.610;2024-03-02T09:34:28;14.20;1.00
37340;DHT22;23223;51.006;7.610;2024-03-02T09:36:54;14.20;8.60
37340;DHT22;23223;51.006;7.610;2024-03-02T09:39:19;14.40;1.00
37340;DHT22;23223;51.006;7.610;2024-03-02T09:41:45;14.20;1.00
37340;DHT22;23223;51.006;7.610;2024-03-02T09:44:12;14.10;1.00
37340;DHT22;23223;51.006;7.610;2024-03-02T09:46:37;14.20;40.60
37340;DHT22;23223;51.006;7.610;2024-03-02T09:49:04;13.60;1.00
37340;DHT22;23223;51.006;7.610;2024-03-02T09:51:30;13.50;1.00
37340;DHT22;23223;51.006;7.610;2024-03-02T09:53:55;13.90;4.80
37340;DHT22;23223;51.006;7.610;2024-03-02T09:56:21;14.50;1.00
37340;DHT22;23223;51.006;7.610;2024-03-02T09:58:47;15.60;1.00
37340;DHT22;23223;51.006;7.610;2024-03-02T10:01:13;16.20;1.00
37340;DHT22;23223;51.006;7.610;2024-03-02T10:03:39;16.30;1.00
37340;DHT22;23223;51.006;7.610;2024-03-02T10:06:21;16.30;1.00
37340;DHT22;23223;51.006;7.610;2024-03-02T10:08:47;16.90;1.00
37340;DHT22;23223;51.006;7.610;2024-03-02T10:11:30;17.20;1.00
37340;DHT22;23223;51.006;7.610;2024-03-02T10:14:13;17.30;1.00
37340;DHT22;23223;51.006;7.610;2024-03-02T10:16:45;17.00;1.00
37340;DHT22;23223;51.006;7.610;2024-03-02T10:19:22;17.30;1.00
37340;DHT22;23223;51.006;7.610;2024-03-02T10:21:52;17.50;1.00
37340;DHT22;23223;51.006;7.610;2024-03-02T10:24:19;17.40;1.00
37340;DHT22;23223;51.006;7.610;2024-03-02T10:26:45;17.40;1.00
37340;DHT22;23223;51.006;7.610;2024-03-02T10:29:11;17.60;1.00
37340;DHT22;23223;51.006;7.610;2024-03-02T10:31:41;17.50;1.00
37340;DHT22;23223;51.006;7.610;2024-03-02T10:34:09;17.50;1.00
37340;DHT22;23223;51.006;7.610;2024-03-02T10:36:35;17.90;1.00
37340;DHT22;23223;51.006;7.610;2024-03-02T10:39:05;17.40;1.00
37340;DHT22;23223;51.006;7.610;2024-03-02T10:41:36;17.80;1.00
37340;DHT22;23223;51.006;7.610;2024-03-02T10:44:03;18.00;1.00
37340;DHT22;23223;51.006;7.610;2024-03-02T10:46:30;17.40;1.00
37340;DHT22;23223;51.006;7.610;2024-03-02T10:49:00;17.70;1.00
37340;DHT22;23223;51.006;7.610;2024-03-02T10:51:31;17.60;1.00
37340;DHT22;23223;51.006;7.610;2024-03-02T10:54:02;18.00;1.00
37340;DHT22;23223;51.006;7.610;2024-03-02T10:56:33;18.10;1.00
37340;DHT22;23223;51.006;7.610;2024-03-02T10:59:34;18.30;1.00
37340;DHT22;23223;51.006;7.610;2024-03-02T11:02:02;18.40;1.00
37340;DHT22;23223;51.006;7.610;2024-03-02T11:04:30;17.80;1.00
37340;DHT22;23223;51.006;7.610;2024-03-02T11:06:59;17.30;1.00
37340;DHT22;23223;51.006;7.610;2024-03-02T11:09:29;17.30;1.00
37340;DHT22;23223;51.006;7.610;2024-03-02T11:12:28;17.70;1.00
37340;DHT22;23223;51.006;7.610;2024-03-02T11:14:55;17.50;1.00
37340;DHT22;23223;51.006;7.610;2024-03-02T11:17:21;17.40;1.00
37340;DHT22;23223;51.006;7.610;2024-03-02T11:19:48;17.50;1.00
37340;DHT22;23223;51.006;7.610;2024-03-02T11:22:15;17.90;1.00
37340;DHT22;23223;51.006;7.610;2024-03-02T11:24:51;18.10;1.00
37340;DHT22;23223;51.006;7.610;2024-03-02T11:33:02;17.00;1.00
37340;DHT22;23223;51.006;7.610;2024-03-02T11:35:35;16.50;1.00
37340;DHT22;23223;51.006;7.610;2024-03-02T11:38:01;16.90;1.00
37340;DHT22;23223;51.006;7.610;2024-03-02T11:40:29;17.20;1.00
37340;DHT22;23223;51.006;7.610;2024-03-02T11:42:55;17.60;1.00
37340;DHT22;23223;51.006;7.610;2024-03-02T11:45:27;18.30;1.00
37340;DHT22;23223;51.006;7.610;2024-03-02T11:47:57;19.00;1.00
37340;DHT22;23223;51.006;7.610;2024-03-02T11:50:43;19.60;1.00
37340;DHT22;23223;51.006;7.610;2024-03-02T11:53:11;20.30;1.00
37340;DHT22;23223;51.006;7.610;2024-03-02T11:55:38;20.10;1.00
37340;DHT22;23223;51.006;7.610;2024-03-02T11:58:05;20.20;1.00
37340;DHT22;23223;51.006;7.610;2024-03-02T12:00:31;20.10;1.00
37340;DHT22;23223;51.006;7.610;2024-03-02T12:03:07;19.80;1.00
37340;DHT22;23223;51.006;7.610;2024-03-02T12:05:34;19.80;1.00
37340;DHT22;23223;51.006;7.610;2024-03-02T12:08:02;19.50;1.00
37340;DHT22;23223;51.006;7.610;2024-03-02T12:10:28;19.70;1.00
37340;DHT22;23223;51.006;7.610;2024-03-02T12:15:28;19.30;1.00
37340;DHT22;23223;51.006;7.610;2024-03-02T12:17:55;19.50;1.00
37340;DHT22;23223;51.006;7.610;2024-03-02T12:20:22;19.30;1.00
37340;DHT22;23223;51.006;7.610;2024-03-02T12:22:52;18.60;1.00
37340;DHT22;23223;51.006;7.610;2024-03-02T12:25:22;18.50;1.00
37340;DHT22;23223;51.006;7.610;2024-03-02T12:27:50;18.50;1.00
37340;DHT22;23223;51.006;7.610;2024-03-02T12:30:17;18.80;1.00
37340;DHT22;23223;51.006;7.610;2024-03-02T12:32:43;18.90;1.00
37340;DHT22;23223;51.006;7.610;2024-03-02T12:35:10;19.30;1.00
37340;DHT22;23223;51.006;7.610;2024-03-02T12:37:48;19.00;1.00
37340;DHT22;23223;51.006;7.610;2024-03-02T12:40:15;19.20;1.00
37340;DHT22;23223;51.006;7.610;2024-03-02T12:42:43;19.10;1.00
37340;DHT22;23223;51.006;7.610;2024-03-02T12:45:09;18.70;1.00
37340;DHT22;23223;51.006;7.610;2024-03-02T12:47:36;18.10;1.00
37340;DHT22;23223;51.006;7.610;2024-03-02T12:50:03;17.90;1.00
37340;DHT22;23223;51.006;7.610;2024-03-02T12:52:29;18.60;1.00
37340;DHT22;23223;51.006;7.610;2024-03-02T12:54:55;18.70;1.00
37340;DHT22;23223;51.006;7.610;2024-03-02T12:57:28;19.10;1.00
37340;DHT22;23223;51.006;7.610;2024-03-02T13:00:02;19.70;1.00
37340;DHT22;23223;51.006;7.610;2024-03-02T13:02:35;19.60;1.00
37340;DHT22;23223;51.006;7.610;2024-03-02T13:05:01;18.60;1.00
37340;DHT22;23223;51.006;7.610;2024-03-02T13:07:28;17.90;1.00
37340;DHT22;23223;51.006;7.610;2024-03-02T13:09:55;17.10;1.00
37340;DHT22;23223;51.006;7.610;2024-03-02T13:12:22;16.40;1.00
37340;DHT22;23223;51.006;7.610;2024-03-02T13:14:54;16.00;1.00
37340;DHT22;23223;51.006;7.610;2024-03-02T13:17:20;15.50;1.00
37340;DHT22;23223;51.006;7.610;2024-03-02T13:19:59;15.40;1.00
37340;DHT22;23223;51.006;7.610;2024-03-02T13:22:25;15.90;1.00
37340;DHT22;23223;51.006;7.610;2024-03-02T13:24:52;16.20;1.00
37340;DHT22;23223;51.006;7.610;2024-03-02T13:27:19;16.20;1.00
37340;DHT22;23223;51.006;7.610;2024-03-02T13:29:47;16.50;1.00
37340;DHT22;23223;51.006;7.610;2024-03-02T13:32:14;17.00;1.00
37340;DHT22;23223;51.006;7.610;2024-03-02T13:34:39;17.00;1.00
37340;DHT22;23223;51.006;7.610;2024-03-02T13:37:05;17.00;1.00
37340;DHT22;23223;51.006;7.610;2024-03-02T13:39:31;17.00;1.00
37340;DHT22;23223;51.006;7.610;2024-03-02T13:41:58;17.40;1.00
37340;DHT22;23223;51.006;7.610;2024-03-02T13:44:30;18.00;1.00
37340;DHT22;23223;51.006;7.610;2024-03-02T13:46:56;18.40;1.00
37340;DHT22;23223;51.006;7.610;2024-03-02T13:49:22;18.90;1.00
37340;DHT22;23223;51.006;7.610;2024-03-02T13:51:48;19.30;1.00
37340;DHT22;23223;51.006;7.610;2024-03-02T13:54:14;19.80;1.00
37340;DHT22;23223;51.006;7.610;2024-03-02T13:56:39;19.70;1.00
37340;DHT22;23223;51.006;7.610;2024-03-02T13:59:06;20.30;1.00
37340;DHT22;23223;51.006;7.610;2024-03-02T14:01:32;19.90;1.00
37340;DHT22;23223;51.006;7.610;2024-03-02T14:03:58;19.30;1.00
37340;DHT22;23223;51.006;7.610;2024-03-02T14:06:25;19.00;1.00
37340;DHT22;23223;51.006;7.610;2024-03-02T14:08:52;18.70;1.00
37340;DHT22;23223;51.006;7.610;2024-03-02T14:11:18;18.40;1.00
37340;DHT22;23223;51.006;7.610;2024-03-02T14:13:44;18.50;1.00
37340;DHT22;23223;51.006;7.610;2024-03-02T14:16:15;18.50;1.00
37340;DHT22;23223;51.006;7.610;2024-03-02T14:18:41;18.50;1.00
37340;DHT22;23223;51.006;7.610;2024-03-02T14:21:07;18.20;1.00
37340;DHT22;23223;51.006;7.610;2024-03-02T14:23:33;18.60;1.00
37340;DHT22;23223;51.006;7.610;2024-03-02T14:25:59;19.10;1.00
37340;DHT22;23223;51.006;7.610;2024-03-02T14:28:25;19.20;1.00
37340;DHT22;23223;51.006;7.610;2024-03-02T14:30:50;19.90;1.00
37340;DHT22;23223;51.006;7.610;2024-03-02T14:33:16;19.90;1.00
37340;DHT22;23223;51.006;7.610;2024-03-02T14:35:42;19.70;1.00
37340;DHT22;23223;51.006;7.610;2024-03-02T14:38:07;19.30;1.00
37340;DHT22;23223;51.006;7.610;2024-03-02T14:40:33;19.20;1.00
37340;DHT22;23223;51.006;7.610;2024-03-02T14:42:59;18.80;1.00
37340;DHT22;23223;51.006;7.610;2024-03-02T14:45:24;18.40;1.00
37340;DHT22;23223;51.006;7.610;2024-03-02T14:47:51;18.60;1.00
37340;DHT22;23223;51.006;7.610;2024-03-02T14:50:17;18.70;1.00
37340;DHT22;23223;51.006;7.610;2024-03-02T14:52:44;18.30;1.00
37340;DHT22;23223;51.006;7.610;2024-03-02T14:55:11;17.70;1.00
37340;DHT22;23223;51.006;7.610;2024-03-02T14:57:36;17.10;1.00
37340;DHT22;23223;51.006;7.610;2024-03-02T15:00:04;16.30;1.00
37340;DHT22;23223;51.006;7.610;2024-03-02T15:02:33;16.10;1.00
37340;DHT22;23223;51.006;7.610;2024-03-02T15:04:59;16.20;1.00
37340;DHT22;23223;51.006;7.610;2024-03-02T15:07:25;16.20;1.00
37340;DHT22;23223;51.006;7.610;2024-03-02T15:09:51;16.20;1.00
37340;DHT22;23223;51.006;7.610;2024-03-02T15:12:17;16.10;1.00
37340;DHT22;23223;51.006;7.610;2024-03-02T15:14:43;16.40;1.00
37340;DHT22;23223;51.006;7.610;2024-03-02T15:17:15;16.30;1.00
37340;DHT22;23223;51.006;7.610;2024-03-02T15:19:45;16.70;1.00
37340;DHT22;23223;51.006;7.610;2024-03-02T15:22:11;16.80;1.00
37340;DHT22;23223;51.006;7.610;2024-03-02T15:24:39;16.70;1.00
37340;DHT22;23223;51.006;7.610;2024-03-02T15:27:05;16.40;1.00
37340;DHT22;23223;51.006;7.610;2024-03-02T15:29:36;16.20;1.00
37340;DHT22;23223;51.006;7.610;2024-03-02T15:32:02;16.00;1.00
37340;DHT22;23223;51.006;7.610;2024-03-02T15:34:32;15.60;1.00
37340;DHT22;23223;51.006;7.610;2024-03-02T15:36:58;15.20;1.00
37340;DHT22;23223;51.006;7.610;2024-03-02T15:39:25;15.00;1.00
37340;DHT22;23223;51.006;7.610;2024-03-02T15:41:51;14.90;1.00
37340;DHT22;23223;51.006;7.610;2024-03-02T15:44:16;14.90;1.00
37340;DHT22;23223;51.006;7.610;2024-03-02T15:46:42;15.10;1.00
37340;DHT22;23223;51.006;7.610;2024-03-02T15:49:08;15.10;1.00
37340;DHT22;23223;51.006;7.610;2024-03-02T15:51:34;14.80;1.00
37340;DHT22;23223;51.006;7.610;2024-03-02T15:54:02;14.80;1.00